createdAt,value
2023-10-25T00:00:59.314Z,12.16
2023-10-25T00:02:00.820Z,12.14
2023-10-25T00:03:02.374Z,12.14
2023-10-25T00:04:04.104Z,12.16
2023-10-25T00:05:06.017Z,12.17
2023-10-25T00:06:07.548Z,12.11
2023-10-25T00:07:09.412Z,12.12
2023-10-25T00:08:10.860Z,12.02
2023-10-25T00:09:12.328Z,12.09
2023-10-25T00:10:13.884Z,12.13
2023-10-25T00:11:15.348Z,12.09
2023-10-25T00:12:16.800Z,12.09
2023-10-25T00:13:18.383Z,12.10
2023-10-25T00:14:19.837Z,12.04
2023-10-25T00:15:22.974Z,12.05
2023-10-25T00:16:24.636Z,12.10
2023-10-25T00:17:26.223Z,12.15
2023-10-25T00:18:28.602Z,12.09
2023-10-25T00:19:30.213Z,12.15
2023-10-25T00:20:31.743Z,12.12
2023-10-25T00:21:33.204Z,12.02
2023-10-25T00:22:34.675Z,12.05
2023-10-25T00:23:36.130Z,12.11
2023-10-25T00:24:37.625Z,12.15
2023-10-25T00:25:39.144Z,12.09
2023-10-25T00:26:40.598Z,12.12
2023-10-25T00:27:42.121Z,12.12
2023-10-25T00:28:43.572Z,11.97
2023-10-25T00:29:45.085Z,12.05
2023-10-25T00:30:46.917Z,12.05
2023-10-25T00:31:48.497Z,12.04
2023-10-25T00:32:50.118Z,12.05
2023-10-25T00:33:51.678Z,11.99
2023-10-25T00:34:53.290Z,12.02
2023-10-25T00:35:55.041Z,12.02
2023-10-25T00:36:56.631Z,12.01
2023-10-25T00:37:58.846Z,11.98
2023-10-25T00:39:00.299Z,11.97
2023-10-25T00:40:01.962Z,11.99
2023-10-25T00:41:03.759Z,12.03
2023-10-25T00:42:05.494Z,11.97
2023-10-25T00:43:17.605Z,12.09
2023-10-25T00:44:19.129Z,12.06
2023-10-25T00:45:20.584Z,12.04
2023-10-25T00:46:30.097Z,12.05
2023-10-25T00:47:31.820Z,12.07
2023-10-25T00:48:35.021Z,12.03
2023-10-25T00:49:36.586Z,12.06
2023-10-25T00:50:38.055Z,12.08
2023-10-25T00:51:39.689Z,12.10
2023-10-25T00:52:41.431Z,12.09
2023-10-25T00:53:47.083Z,12.09
2023-10-25T00:54:48.999Z,12.11
2023-10-25T00:55:51.862Z,12.10
2023-10-25T00:56:56.937Z,12.12
2023-10-25T00:57:58.588Z,12.16
2023-10-25T00:59:00.372Z,12.14
2023-10-25T01:00:01.971Z,12.09
2023-10-25T01:01:04.550Z,12.08
2023-10-25T01:02:08.951Z,12.12
2023-10-25T01:03:12.466Z,12.17
2023-10-25T01:04:14.980Z,12.15
2023-10-25T01:05:16.575Z,12.18
2023-10-25T01:06:18.560Z,12.21
2023-10-25T01:07:20.016Z,12.23
2023-10-25T01:08:22.255Z,12.18
2023-10-25T01:09:23.945Z,12.13
2023-10-25T01:10:26.278Z,12.14
2023-10-25T01:11:27.767Z,12.16
2023-10-25T01:12:29.378Z,12.03
2023-10-25T01:13:30.923Z,12.07
2023-10-25T01:14:32.536Z,12.09
2023-10-25T01:15:34.042Z,12.08
2023-10-25T01:16:35.601Z,12.11
2023-10-25T01:17:37.166Z,12.13
2023-10-25T01:18:38.654Z,12.09
2023-10-25T01:19:40.293Z,12.11
2023-10-25T01:20:43.020Z,12.08
2023-10-25T01:21:45.112Z,12.09
2023-10-25T01:22:49.873Z,12.00
2023-10-25T01:23:56.962Z,12.03
2023-10-25T01:24:58.567Z,12.06
2023-10-25T01:26:00.039Z,12.06
2023-10-25T01:27:01.490Z,12.14
2023-10-25T01:28:03.054Z,12.11
2023-10-25T01:29:05.210Z,12.10
2023-10-25T01:30:07.375Z,12.10
2023-10-25T01:31:08.815Z,12.09
2023-10-25T01:32:10.643Z,12.02
2023-10-25T01:33:12.333Z,11.99
2023-10-25T01:34:13.968Z,11.98
2023-10-25T01:35:15.913Z,11.96
2023-10-25T01:36:17.286Z,11.98
2023-10-25T01:37:18.889Z,11.98
2023-10-25T01:38:20.365Z,12.05
2023-10-25T01:39:21.894Z,12.01
2023-10-25T01:40:23.496Z,11.94
2023-10-25T01:41:25.139Z,11.98
2023-10-25T01:42:26.847Z,12.01
2023-10-25T01:43:29.462Z,11.94
2023-10-25T01:44:31.048Z,12.03
2023-10-25T01:45:32.647Z,11.96
2023-10-25T01:46:34.185Z,11.98
2023-10-25T01:47:35.844Z,12.05
2023-10-25T01:48:40.625Z,12.12
2023-10-25T01:49:44.286Z,12.08
2023-10-25T01:50:45.984Z,12.05
2023-10-25T01:51:47.449Z,12.02
2023-10-25T01:52:49.038Z,12.02
2023-10-25T01:53:50.463Z,12.03
2023-10-25T01:54:52.043Z,12.06
2023-10-25T01:55:54.221Z,12.06
2023-10-25T01:56:55.684Z,12.13
2023-10-25T01:57:57.276Z,12.06
2023-10-25T01:58:59.002Z,12.20
2023-10-25T02:00:02.607Z,12.11
2023-10-25T02:01:07.771Z,12.12
2023-10-25T02:02:11.158Z,12.11
2023-10-25T02:03:12.669Z,12.07
2023-10-25T02:04:14.294Z,12.14
2023-10-25T02:05:15.880Z,12.05
2023-10-25T02:06:17.377Z,12.06
2023-10-25T02:07:19.517Z,12.10
2023-10-25T02:08:20.998Z,12.11
2023-10-25T02:09:22.908Z,12.12
2023-10-25T02:10:24.376Z,12.14
2023-10-25T02:11:25.966Z,12.06
2023-10-25T02:12:27.420Z,12.03
2023-10-25T02:13:28.849Z,12.04
2023-10-25T02:14:30.310Z,11.98
2023-10-25T02:15:31.845Z,12.03
2023-10-25T02:16:33.370Z,12.06
2023-10-25T02:17:34.804Z,12.09
2023-10-25T02:18:36.228Z,12.02
2023-10-25T02:19:37.947Z,12.04
2023-10-25T02:20:39.770Z,12.07
2023-10-25T02:21:41.291Z,12.04
2023-10-25T02:22:42.820Z,11.99
2023-10-25T02:23:44.438Z,11.88
2023-10-25T02:24:46.020Z,11.92
2023-10-25T02:25:47.453Z,11.98
2023-10-25T02:26:50.991Z,11.81
2023-10-25T02:27:52.457Z,11.87
2023-10-25T02:28:54.753Z,11.90
2023-10-25T02:29:56.215Z,11.90
2023-10-25T02:30:57.688Z,11.93
2023-10-25T02:31:59.274Z,11.87
2023-10-25T02:33:00.861Z,11.87
2023-10-25T02:34:02.746Z,11.91
2023-10-25T02:35:04.693Z,11.97
2023-10-25T02:36:06.505Z,12.00
2023-10-25T02:37:08.014Z,12.03
2023-10-25T02:38:09.499Z,12.04
2023-10-25T02:39:11.613Z,11.93
2023-10-25T02:40:13.116Z,11.96
2023-10-25T02:41:14.646Z,11.96
2023-10-25T02:42:16.113Z,11.88
2023-10-25T02:43:17.618Z,11.92
2023-10-25T02:44:19.180Z,11.90
2023-10-25T02:45:20.691Z,11.89
2023-10-25T02:46:22.441Z,11.86
2023-10-25T02:47:24.028Z,11.89
2023-10-25T02:48:25.483Z,11.77
2023-10-25T02:49:27.108Z,11.70
2023-10-25T02:50:30.173Z,11.71
2023-10-25T02:51:32.821Z,11.82
2023-10-25T02:52:34.335Z,11.73
2023-10-25T02:53:35.792Z,11.74
2023-10-25T02:54:37.234Z,11.83
2023-10-25T02:55:38.701Z,11.84
2023-10-25T02:56:40.208Z,11.84
2023-10-25T02:57:42.300Z,11.80
2023-10-25T02:58:43.780Z,11.76
2023-10-25T02:59:45.232Z,11.79
2023-10-25T03:00:46.709Z,11.82
2023-10-25T03:01:48.287Z,11.85
2023-10-25T03:02:49.866Z,11.86
2023-10-25T03:03:52.666Z,11.82
2023-10-25T03:04:54.451Z,11.83
2023-10-25T03:05:56.659Z,11.82
2023-10-25T03:06:58.214Z,11.85
2023-10-25T03:07:59.711Z,11.85
2023-10-25T03:09:01.161Z,11.84
2023-10-25T03:10:03.357Z,11.79
2023-10-25T03:11:04.853Z,11.68
2023-10-25T03:12:06.516Z,11.69
2023-10-25T03:13:08.138Z,11.73
2023-10-25T03:14:09.653Z,11.71
2023-10-25T03:15:11.237Z,11.75
2023-10-25T03:16:14.713Z,11.76
2023-10-25T03:17:16.309Z,11.71
2023-10-25T03:18:17.828Z,11.74
2023-10-25T03:19:19.493Z,11.74
2023-10-25T03:20:21.225Z,11.74
2023-10-25T03:21:23.423Z,11.74
2023-10-25T03:22:24.864Z,11.79
2023-10-25T03:23:26.312Z,11.82
2023-10-25T03:24:28.869Z,11.82
2023-10-25T03:25:30.356Z,11.81
2023-10-25T03:26:31.842Z,11.87
2023-10-25T03:27:33.336Z,11.86
2023-10-25T03:28:38.413Z,11.84
2023-10-25T03:29:42.175Z,11.83
2023-10-25T03:30:43.901Z,11.86
2023-10-25T03:31:45.548Z,11.91
2023-10-25T03:32:47.158Z,11.93
2023-10-25T03:33:49.297Z,11.88
2023-10-25T03:34:53.892Z,11.86
2023-10-25T03:35:55.705Z,11.90
2023-10-25T03:36:57.289Z,11.90
2023-10-25T03:37:58.766Z,11.86
2023-10-25T03:39:01.127Z,11.82
2023-10-25T03:40:02.642Z,11.79
2023-10-25T03:41:08.998Z,11.75
2023-10-25T03:42:10.699Z,11.80
2023-10-25T03:43:12.157Z,11.79
2023-10-25T03:44:14.307Z,11.77
2023-10-25T03:45:15.804Z,11.77
2023-10-25T03:46:17.339Z,11.83
2023-10-25T03:47:18.960Z,11.78
2023-10-25T03:48:20.433Z,11.83
2023-10-25T03:49:22.207Z,11.86
2023-10-25T03:50:26.096Z,11.81
2023-10-25T03:51:27.552Z,11.78
2023-10-25T03:52:29.640Z,11.78
2023-10-25T03:53:35.268Z,11.75
2023-10-25T03:54:40.085Z,11.74
2023-10-25T03:55:41.566Z,11.70
2023-10-25T03:56:43.461Z,11.71
2023-10-25T03:57:44.897Z,11.72
2023-10-25T03:58:46.446Z,11.62
2023-10-25T03:59:47.922Z,11.54
2023-10-25T04:00:49.595Z,11.52
2023-10-25T04:01:51.250Z,11.52
2023-10-25T04:02:52.929Z,11.54
2023-10-25T04:03:54.698Z,11.53
2023-10-25T04:04:56.280Z,11.50
2023-10-25T04:05:57.798Z,11.53
2023-10-25T04:06:59.298Z,11.50
2023-10-25T04:08:00.769Z,11.50
2023-10-25T04:09:02.621Z,11.52
2023-10-25T04:10:04.457Z,11.43
2023-10-25T04:11:06.099Z,11.46
2023-10-25T04:12:13.090Z,11.41
2023-10-25T04:13:14.561Z,11.46
2023-10-25T04:14:16.457Z,11.44
2023-10-25T04:15:17.966Z,11.44
2023-10-25T04:16:19.516Z,11.45
2023-10-25T04:17:21.012Z,11.37
2023-10-25T04:18:23.324Z,11.46
2023-10-25T04:19:24.828Z,11.46
2023-10-25T04:20:26.366Z,11.46
2023-10-25T04:21:27.867Z,11.48
2023-10-25T04:22:29.628Z,11.46
2023-10-25T04:23:32.024Z,11.44
2023-10-25T04:24:34.502Z,11.40
2023-10-25T04:25:35.943Z,11.35
2023-10-25T04:26:37.410Z,11.33
2023-10-25T04:27:38.868Z,11.39
2023-10-25T04:28:44.975Z,11.42
2023-10-25T04:29:46.415Z,11.42
2023-10-25T04:30:48.218Z,11.38
2023-10-25T04:31:49.910Z,11.31
2023-10-25T04:32:51.538Z,11.31
2023-10-25T04:33:53.087Z,11.22
2023-10-25T04:34:54.810Z,11.12
2023-10-25T04:35:57.615Z,11.06
2023-10-25T04:36:59.112Z,11.04
2023-10-25T04:38:00.812Z,11.04
2023-10-25T04:39:02.302Z,11.03
2023-10-25T04:40:04.939Z,10.97
2023-10-25T04:41:06.441Z,10.86
2023-10-25T04:42:07.878Z,10.75
2023-10-25T04:43:09.339Z,10.70
2023-10-25T04:44:10.984Z,10.67
2023-10-25T04:45:12.477Z,10.73
2023-10-25T04:46:17.063Z,10.68
2023-10-25T04:47:18.602Z,10.68
2023-10-25T04:48:20.278Z,10.65
2023-10-25T04:49:21.812Z,10.65
2023-10-25T04:50:23.841Z,10.70
2023-10-25T04:51:25.411Z,10.62
2023-10-25T04:52:26.861Z,10.63
2023-10-25T04:53:28.333Z,10.61
2023-10-25T04:54:29.816Z,10.61
2023-10-25T04:55:32.383Z,10.63
2023-10-25T04:56:33.822Z,10.66
2023-10-25T04:57:35.533Z,10.69
2023-10-25T04:58:37.682Z,10.58
2023-10-25T04:59:39.151Z,10.62
2023-10-25T05:00:41.158Z,10.69
2023-10-25T05:01:42.775Z,10.59
2023-10-25T05:02:44.400Z,10.61
2023-10-25T05:03:46.539Z,10.65
2023-10-25T05:04:48.331Z,10.65
2023-10-25T05:05:50.617Z,10.60
2023-10-25T05:06:52.323Z,10.62
2023-10-25T05:07:54.170Z,10.59
2023-10-25T05:08:55.903Z,10.63
2023-10-25T05:09:57.712Z,10.55
2023-10-25T05:11:04.630Z,10.51
2023-10-25T05:12:09.971Z,10.47
2023-10-25T05:13:14.856Z,10.44
2023-10-25T05:14:16.599Z,10.47
2023-10-25T05:15:20.028Z,10.44
2023-10-25T05:16:21.816Z,10.45
2023-10-25T05:17:23.587Z,10.43
2023-10-25T05:18:26.350Z,10.45
2023-10-25T05:19:28.242Z,10.44
2023-10-25T05:20:30.491Z,10.41
2023-10-25T05:21:36.896Z,10.46
2023-10-25T05:22:40.280Z,10.43
2023-10-25T05:23:42.160Z,10.38
2023-10-25T05:24:43.978Z,10.37
2023-10-25T05:25:45.988Z,10.37
2023-10-25T05:26:47.651Z,10.31
2023-10-25T05:27:49.467Z,10.25
2023-10-25T05:28:51.262Z,10.18
2023-10-25T05:29:52.949Z,10.14
2023-10-25T05:30:56.535Z,10.09
2023-10-25T05:32:04.358Z,10.04
2023-10-25T05:33:08.513Z,10.06
2023-10-25T05:34:11.225Z,10.01
2023-10-25T05:35:13.620Z,9.97
2023-10-25T05:36:15.647Z,10.00
2023-10-25T05:37:17.230Z,9.96
2023-10-25T05:38:19.274Z,9.89
2023-10-25T05:39:20.729Z,9.88
2023-10-25T05:40:22.872Z,9.83
2023-10-25T05:41:27.286Z,9.82
2023-10-25T05:42:29.174Z,9.79
2023-10-25T05:43:37.391Z,9.77
2023-10-25T05:44:39.164Z,9.76
2023-10-25T05:45:41.098Z,9.74
2023-10-25T05:46:43.010Z,9.71
2023-10-25T05:47:44.715Z,9.69
2023-10-25T05:48:46.603Z,9.68
2023-10-25T05:49:48.993Z,9.66
2023-10-25T05:50:51.686Z,9.62
2023-10-25T05:51:53.457Z,9.61
2023-10-25T05:52:55.208Z,9.60
2023-10-25T05:53:57.033Z,9.58
2023-10-25T05:54:58.825Z,9.56
2023-10-25T05:56:01.310Z,9.54
2023-10-25T05:57:03.837Z,9.49
2023-10-25T05:58:05.559Z,9.51
2023-10-25T05:59:07.471Z,9.50
2023-10-25T06:00:09.418Z,9.54
2023-10-25T06:01:12.021Z,9.53
2023-10-25T06:02:15.683Z,9.54
2023-10-25T06:03:31.428Z,9.49
2023-10-25T06:04:34.709Z,9.57
2023-10-25T06:05:37.542Z,9.64
2023-10-25T06:06:41.731Z,9.70
2023-10-25T06:07:43.660Z,9.74
2023-10-25T06:08:46.150Z,9.76
2023-10-25T06:09:47.930Z,9.81
2023-10-25T06:10:51.834Z,9.82
2023-10-25T06:11:53.837Z,9.91
2023-10-25T06:12:55.628Z,9.91
2023-10-25T06:13:57.510Z,9.95
2023-10-25T06:14:59.078Z,9.98
2023-10-25T06:16:00.715Z,10.02
2023-10-25T06:17:02.936Z,10.02
2023-10-25T06:18:08.748Z,10.02
2023-10-25T06:19:10.416Z,10.08
2023-10-25T06:20:14.193Z,10.09
2023-10-25T06:21:15.641Z,10.09
2023-10-25T06:22:17.369Z,10.11
2023-10-25T06:23:18.831Z,10.11
2023-10-25T06:24:20.527Z,10.12
2023-10-25T06:25:22.070Z,10.13
2023-10-25T06:26:25.419Z,10.15
2023-10-25T06:27:27.143Z,10.22
2023-10-25T06:28:28.686Z,10.26
2023-10-25T06:29:30.229Z,10.29
2023-10-25T06:30:31.706Z,10.39
2023-10-25T06:31:33.290Z,10.41
2023-10-25T06:32:35.686Z,10.51
2023-10-25T06:33:37.195Z,10.53
2023-10-25T06:34:38.628Z,10.56
2023-10-25T06:35:40.073Z,10.58
2023-10-25T06:36:41.830Z,10.58
2023-10-25T06:37:43.577Z,10.57
2023-10-25T06:38:45.270Z,10.65
2023-10-25T06:39:47.001Z,10.62
2023-10-25T06:40:48.853Z,10.67
2023-10-25T06:41:50.777Z,10.67
2023-10-25T06:42:54.117Z,10.73
2023-10-25T06:43:55.941Z,10.68
2023-10-25T06:44:57.799Z,10.70
2023-10-25T06:46:00.092Z,10.71
2023-10-25T06:47:01.950Z,10.74
2023-10-25T06:48:03.818Z,10.78
2023-10-25T06:49:05.805Z,10.81
2023-10-25T06:50:07.657Z,10.73
2023-10-25T06:51:10.305Z,10.81
2023-10-25T06:52:12.363Z,10.80
2023-10-25T06:53:14.264Z,10.73
2023-10-25T06:54:15.910Z,10.73
2023-10-25T06:55:17.814Z,10.69
2023-10-25T06:56:19.605Z,10.67
2023-10-25T06:57:21.410Z,10.75
2023-10-25T06:58:23.158Z,10.71
2023-10-25T06:59:24.968Z,10.70
2023-10-25T07:00:27.237Z,10.73
2023-10-25T07:01:33.073Z,10.66
2023-10-25T07:02:39.852Z,10.67
2023-10-25T07:03:47.003Z,10.63
2023-10-25T07:04:55.496Z,10.58
2023-10-25T07:06:00.894Z,10.56
2023-10-25T07:07:10.501Z,10.65
2023-10-25T07:08:12.743Z,10.62
2023-10-25T07:09:17.557Z,10.61
2023-10-25T07:10:20.724Z,10.59
2023-10-25T07:11:25.086Z,10.66
2023-10-25T07:12:26.878Z,10.70
2023-10-25T07:13:28.455Z,10.67
2023-10-25T07:14:31.604Z,10.71
2023-10-25T07:15:33.977Z,10.73
2023-10-25T07:16:35.921Z,10.75
2023-10-25T07:17:38.985Z,10.77
2023-10-25T07:18:40.715Z,10.81
2023-10-25T07:19:44.684Z,10.89
2023-10-25T07:20:46.210Z,10.91
2023-10-25T07:21:47.769Z,10.99
2023-10-25T07:22:49.292Z,10.99
2023-10-25T07:23:50.834Z,11.04
2023-10-25T07:24:52.322Z,11.06
2023-10-25T07:25:54.176Z,11.13
2023-10-25T07:26:55.706Z,11.06
2023-10-25T07:27:57.348Z,11.15
2023-10-25T07:28:58.799Z,11.18
2023-10-25T07:30:00.348Z,11.22
2023-10-25T07:31:01.968Z,11.11
2023-10-25T07:32:06.794Z,11.21
2023-10-25T07:33:09.103Z,11.21
2023-10-25T07:34:12.269Z,11.25
2023-10-25T07:35:13.785Z,11.22
2023-10-25T07:36:15.395Z,11.22
2023-10-25T07:37:16.890Z,11.27
2023-10-25T07:38:18.384Z,11.29
2023-10-25T07:39:19.871Z,11.24
2023-10-25T07:40:22.074Z,11.24
2023-10-25T07:41:23.618Z,11.17
2023-10-25T07:42:25.429Z,11.20
2023-10-25T07:43:26.908Z,11.23
2023-10-25T07:44:29.416Z,11.26
2023-10-25T07:45:30.922Z,11.19
2023-10-25T07:46:32.600Z,11.24
2023-10-25T07:47:34.458Z,11.25
2023-10-25T07:48:35.906Z,11.23
2023-10-25T07:49:37.555Z,11.32
2023-10-25T07:50:39.110Z,11.33
2023-10-25T07:51:40.588Z,11.37
2023-10-25T07:52:42.057Z,11.38
2023-10-25T07:53:43.577Z,11.28
2023-10-25T07:54:45.248Z,11.13
2023-10-25T07:57:10.372Z,11.27
2023-10-25T07:58:24.646Z,11.38
2023-10-25T07:59:28.791Z,11.22
2023-10-25T08:00:30.314Z,11.29
2023-10-25T08:01:31.807Z,11.36
2023-10-25T08:02:33.317Z,11.40
2023-10-25T08:03:34.937Z,11.38
2023-10-25T08:04:36.624Z,11.38
2023-10-25T08:05:38.142Z,11.43
2023-10-25T08:06:39.957Z,11.44
2023-10-25T08:07:43.156Z,11.47
2023-10-25T08:08:44.637Z,11.43
2023-10-25T08:09:48.161Z,11.46
2023-10-25T08:10:49.668Z,11.26
2023-10-25T08:11:51.342Z,11.29
2023-10-25T08:12:52.900Z,11.35
2023-10-25T08:13:54.386Z,11.39
2023-10-25T08:14:55.929Z,11.33
2023-10-25T08:16:01.836Z,11.41
2023-10-25T08:17:03.951Z,11.45
2023-10-25T08:18:05.563Z,11.39
2023-10-25T08:19:08.624Z,11.29
2023-10-25T08:20:10.702Z,11.28
2023-10-25T08:21:17.202Z,11.33
2023-10-25T08:22:18.715Z,11.46
2023-10-25T08:23:20.582Z,11.49
2023-10-25T08:24:22.065Z,11.47
2023-10-25T08:25:23.774Z,11.43
2023-10-25T08:26:27.567Z,11.44
2023-10-25T08:27:29.120Z,11.44
2023-10-25T08:28:30.752Z,11.41
2023-10-25T08:29:32.278Z,11.43
2023-10-25T08:30:33.761Z,11.46
2023-10-25T08:31:35.801Z,11.50
2023-10-25T08:32:37.607Z,11.54
2023-10-25T08:33:39.251Z,11.60
2023-10-25T08:34:48.083Z,11.63
2023-10-25T08:35:49.784Z,11.72
2023-10-25T08:36:53.322Z,11.70
2023-10-25T08:37:54.771Z,11.70
2023-10-25T08:38:56.930Z,11.78
2023-10-25T08:39:58.533Z,11.80
2023-10-25T08:41:07.684Z,11.90
2023-10-25T08:42:13.082Z,11.98
2023-10-25T08:43:17.844Z,11.87
2023-10-25T08:44:20.675Z,12.06
2023-10-25T08:45:22.404Z,11.97
2023-10-25T08:46:25.893Z,12.02
2023-10-25T08:47:27.496Z,12.02
2023-10-25T08:48:29.380Z,12.07
2023-10-25T08:49:31.037Z,12.13
2023-10-25T08:50:32.861Z,12.24
2023-10-25T08:51:36.580Z,12.24
2023-10-25T08:52:38.529Z,12.22
2023-10-25T08:53:42.430Z,12.27
2023-10-25T08:54:44.655Z,12.25
2023-10-25T08:55:46.191Z,12.31
2023-10-25T08:56:47.849Z,12.31
2023-10-25T08:57:55.310Z,12.36
2023-10-25T08:59:02.611Z,12.26
2023-10-25T09:00:08.637Z,12.28
2023-10-25T09:01:10.238Z,12.32
2023-10-25T09:02:13.048Z,12.07
2023-10-25T09:03:33.368Z,12.14
2023-10-25T09:04:35.108Z,12.19
2023-10-25T09:05:41.148Z,12.18
2023-10-25T09:06:42.691Z,12.17
2023-10-25T09:07:44.218Z,12.17
2023-10-25T09:08:57.504Z,12.31
2023-10-25T09:09:59.733Z,12.16
2023-10-25T09:11:03.943Z,12.14
2023-10-25T09:12:05.940Z,12.20
2023-10-25T09:13:14.690Z,12.26
2023-10-25T09:14:16.543Z,12.17
2023-10-25T09:15:30.909Z,12.09
2023-10-25T09:16:32.506Z,12.05
2023-10-25T09:17:35.531Z,12.15
2023-10-25T09:18:40.885Z,12.24
2023-10-25T09:19:46.612Z,12.33
2023-10-25T09:21:03.993Z,12.31
2023-10-25T09:22:31.210Z,12.27
2023-10-25T09:23:36.083Z,12.41
2023-10-25T09:24:48.464Z,12.44
2023-10-25T09:25:51.072Z,12.43
2023-10-25T09:26:55.857Z,12.47
2023-10-25T09:27:57.395Z,12.52
2023-10-25T09:28:58.940Z,12.55
2023-10-25T09:30:26.560Z,12.62
2023-10-25T09:31:31.485Z,12.62
2023-10-25T09:32:33.347Z,12.72
2023-10-25T09:33:34.857Z,12.59
2023-10-25T09:34:37.426Z,12.60
2023-10-25T09:35:39.060Z,12.70
2023-10-25T09:36:40.660Z,12.84
2023-10-25T09:37:42.136Z,12.97
2023-10-25T09:38:43.786Z,13.04
2023-10-25T09:39:45.473Z,13.15
2023-10-25T09:40:47.405Z,13.15
2023-10-25T09:41:53.712Z,13.21
2023-10-25T09:43:00.448Z,13.26
2023-10-25T09:44:10.093Z,13.34
2023-10-25T09:45:16.169Z,13.22
2023-10-25T09:46:19.580Z,13.29
2023-10-25T09:47:26.806Z,13.40
2023-10-25T09:48:31.151Z,13.39
2023-10-25T09:49:34.779Z,13.35
2023-10-25T09:50:42.781Z,13.35
2023-10-25T09:52:07.366Z,13.12
2023-10-25T09:53:18.349Z,12.87
2023-10-25T09:54:30.537Z,12.92
2023-10-25T09:55:34.825Z,13.10
2023-10-25T09:56:36.862Z,13.12
2023-10-25T09:57:40.053Z,13.20
2023-10-25T09:58:42.036Z,13.19
2023-10-25T09:59:44.288Z,13.27
2023-10-25T10:00:46.997Z,13.11
2023-10-25T10:01:49.089Z,13.18
2023-10-25T10:03:02.336Z,13.13
2023-10-25T10:04:34.775Z,13.09
2023-10-25T10:05:50.082Z,13.17
2023-10-25T10:06:54.171Z,13.27
2023-10-25T10:08:09.766Z,13.26
2023-10-25T10:09:24.266Z,13.26
2023-10-25T10:10:35.731Z,13.39
2023-10-25T10:11:44.779Z,13.42
2023-10-25T10:12:46.455Z,13.47
2023-10-25T10:13:47.907Z,13.53
2023-10-25T10:14:49.384Z,13.65
2023-10-25T10:16:10.503Z,13.64
2023-10-25T10:17:15.422Z,13.62
2023-10-25T10:18:19.374Z,13.41
2023-10-25T10:19:22.796Z,13.40
2023-10-25T10:20:28.665Z,13.37
2023-10-25T10:21:30.183Z,13.50
2023-10-25T10:22:31.708Z,13.48
2023-10-25T10:23:37.486Z,13.56
2023-10-25T10:24:46.183Z,13.42
2023-10-25T10:25:51.300Z,13.06
2023-10-25T10:26:54.586Z,13.17
2023-10-25T10:28:02.620Z,13.09
2023-10-25T10:29:05.217Z,12.94
2023-10-25T10:30:38.623Z,13.13
2023-10-25T10:31:56.977Z,13.26
2023-10-25T10:32:58.604Z,13.36
2023-10-25T10:34:00.295Z,13.47
2023-10-25T10:35:02.832Z,13.53
2023-10-25T10:36:04.638Z,13.57
2023-10-25T10:37:08.712Z,13.62
2023-10-25T10:38:10.211Z,13.53
2023-10-25T10:39:12.718Z,13.66
2023-10-25T10:40:14.874Z,13.63
2023-10-25T10:41:27.296Z,13.59
2023-10-25T10:42:31.978Z,13.71
2023-10-25T10:43:33.763Z,13.65
2023-10-25T10:44:36.594Z,13.56
2023-10-25T10:45:44.691Z,13.55
2023-10-25T10:46:52.854Z,13.52
2023-10-25T10:48:03.997Z,13.65
2023-10-25T10:49:12.093Z,13.60
2023-10-25T10:50:19.731Z,13.58
2023-10-25T10:51:21.223Z,13.63
2023-10-25T10:52:22.656Z,13.61
2023-10-25T10:53:24.166Z,13.61
2023-10-25T10:54:25.748Z,13.68
2023-10-25T10:55:27.584Z,13.69
2023-10-25T10:56:29.078Z,13.69
2023-10-25T10:57:32.239Z,13.74
2023-10-25T10:58:33.742Z,13.70
2023-10-25T10:59:35.359Z,13.93
2023-10-25T11:00:37.251Z,14.03
2023-10-25T11:01:38.652Z,14.14
2023-10-25T11:02:45.272Z,13.94
2023-10-25T11:03:46.960Z,14.02
2023-10-25T11:04:48.569Z,14.17
2023-10-25T11:05:53.055Z,14.18
2023-10-25T11:06:54.701Z,14.24
2023-10-25T11:07:56.601Z,14.44
2023-10-25T11:09:01.032Z,14.50
2023-10-25T11:10:03.178Z,14.53
2023-10-25T11:11:04.692Z,14.44
2023-10-25T11:12:08.877Z,14.39
2023-10-25T11:13:11.046Z,14.53
2023-10-25T11:14:12.643Z,14.54
2023-10-25T11:15:14.705Z,14.47
2023-10-25T11:16:16.750Z,14.34
2023-10-25T11:17:18.293Z,14.15
2023-10-25T11:18:19.898Z,14.10
2023-10-25T11:19:21.441Z,14.14
2023-10-25T11:20:23.030Z,14.12
2023-10-25T11:21:24.628Z,14.05
2023-10-25T11:22:26.629Z,14.03
2023-10-25T11:23:29.016Z,14.01
2023-10-25T11:24:30.702Z,13.95
2023-10-25T11:25:32.564Z,13.97
2023-10-25T11:26:38.597Z,14.02
2023-10-25T11:27:41.468Z,13.82
2023-10-25T11:28:43.121Z,13.94
2023-10-25T11:29:44.849Z,13.92
2023-10-25T11:30:46.429Z,13.87
2023-10-25T11:31:50.809Z,13.79
2023-10-25T11:32:53.678Z,13.77
2023-10-25T11:33:55.929Z,13.76
2023-10-25T11:34:57.655Z,13.75
2023-10-25T11:35:59.197Z,13.72
2023-10-25T11:37:04.359Z,13.73
2023-10-25T11:38:07.304Z,13.76
2023-10-25T11:39:09.422Z,13.69
2023-10-25T11:40:12.049Z,13.69
2023-10-25T11:41:13.768Z,13.62
2023-10-25T11:42:15.506Z,13.71
2023-10-25T11:43:17.328Z,13.76
2023-10-25T11:44:23.268Z,13.81
2023-10-25T11:45:25.115Z,13.92
2023-10-25T11:46:35.784Z,14.09
2023-10-25T11:47:39.311Z,14.19
2023-10-25T11:48:40.861Z,14.30
2023-10-25T11:49:42.412Z,14.44
2023-10-25T11:50:47.614Z,14.54
2023-10-25T11:51:49.198Z,14.66
2023-10-25T11:52:50.679Z,14.68
2023-10-25T11:53:52.191Z,14.67
2023-10-25T11:54:57.328Z,14.67
2023-10-25T11:56:00.071Z,14.67
2023-10-25T11:57:01.719Z,14.66
2023-10-25T11:58:04.375Z,14.78
2023-10-25T11:59:06.029Z,14.70
2023-10-25T12:00:10.864Z,14.66
2023-10-25T12:01:12.546Z,14.64
2023-10-25T12:02:14.175Z,14.64
2023-10-25T12:03:16.004Z,14.65
2023-10-25T12:04:17.757Z,14.52
2023-10-25T12:05:19.658Z,14.49
2023-10-25T12:06:21.046Z,14.42
2023-10-25T12:07:23.707Z,14.42
2023-10-25T12:08:25.253Z,14.36
2023-10-25T12:09:27.011Z,14.30
2023-10-25T12:10:28.797Z,14.19
2023-10-25T12:11:30.354Z,14.15
2023-10-25T12:12:32.104Z,14.16
2023-10-25T12:13:33.562Z,14.02
2023-10-25T12:14:35.086Z,13.98
2023-10-25T12:15:36.662Z,14.00
2023-10-25T12:16:38.122Z,13.97
2023-10-25T12:17:39.682Z,13.91
2023-10-25T12:18:41.443Z,13.89
2023-10-25T12:19:43.599Z,13.85
2023-10-25T12:20:45.330Z,13.70
2023-10-25T12:21:46.795Z,13.70
2023-10-25T12:22:48.254Z,13.60
2023-10-25T12:23:49.716Z,13.44
2023-10-25T12:24:51.446Z,13.55
2023-10-25T12:25:53.087Z,13.65
2023-10-25T12:26:54.835Z,13.74
2023-10-25T12:27:56.571Z,13.72
2023-10-25T12:28:58.038Z,13.70
2023-10-25T12:29:59.603Z,13.69
2023-10-25T12:31:01.145Z,13.84
2023-10-25T12:32:04.575Z,13.94
2023-10-25T12:33:06.043Z,14.00
2023-10-25T12:34:07.543Z,14.07
2023-10-25T12:35:09.546Z,14.01
2023-10-25T12:36:11.026Z,14.03
2023-10-25T12:37:12.929Z,14.00
2023-10-25T12:38:14.282Z,13.98
2023-10-25T12:39:17.318Z,14.09
2023-10-25T12:40:19.019Z,14.15
2023-10-25T12:41:20.486Z,14.17
2023-10-25T12:42:21.945Z,14.22
2023-10-25T12:43:23.394Z,14.32
2023-10-25T12:44:25.706Z,14.39
2023-10-25T12:45:27.319Z,14.31
2023-10-25T12:46:28.832Z,14.46
2023-10-25T12:47:30.451Z,14.65
2023-10-25T12:48:32.107Z,14.75
2023-10-25T12:49:33.672Z,14.82
2023-10-25T12:50:35.245Z,14.91
2023-10-25T12:51:37.308Z,14.88
2023-10-25T12:52:39.007Z,14.94
2023-10-25T12:53:40.579Z,15.03
2023-10-25T12:54:42.514Z,15.04
2023-10-25T12:55:44.204Z,14.82
2023-10-25T12:56:45.947Z,14.75
2023-10-25T12:57:47.512Z,14.78
2023-10-25T12:58:49.163Z,14.71
2023-10-25T12:59:50.724Z,14.71
2023-10-25T13:00:53.065Z,14.69
2023-10-25T13:01:54.557Z,14.76
2023-10-25T13:02:56.060Z,14.65
2023-10-25T13:03:57.783Z,14.68
2023-10-25T13:04:59.288Z,14.67
2023-10-25T13:06:00.937Z,14.72
2023-10-25T13:07:03.750Z,14.69
2023-10-25T13:08:05.216Z,14.73
2023-10-25T13:09:06.883Z,14.63
2023-10-25T13:10:08.952Z,14.65
2023-10-25T13:11:10.422Z,14.56
2023-10-25T13:12:12.072Z,14.55
2023-10-25T13:13:13.609Z,14.60
2023-10-25T13:14:15.097Z,14.47
2023-10-25T13:15:16.747Z,14.57
2023-10-25T13:16:18.333Z,14.58
2023-10-25T13:17:20.990Z,14.63
2023-10-25T13:18:22.737Z,14.63
2023-10-25T13:19:25.285Z,14.71
2023-10-25T13:20:26.996Z,14.84
2023-10-25T13:21:28.476Z,14.87
2023-10-25T13:22:31.356Z,14.92
2023-10-25T13:23:32.855Z,14.82
2023-10-25T13:24:34.465Z,14.84
2023-10-25T13:25:36.051Z,14.88
2023-10-25T13:26:38.123Z,14.92
2023-10-25T13:27:39.656Z,14.93
2023-10-25T13:28:41.154Z,14.92
2023-10-25T13:29:43.590Z,14.99
2023-10-25T13:30:45.263Z,15.01
2023-10-25T13:31:46.752Z,15.05